createdAt,value
2019-03-20T00:00:56.687Z,163844.05
2019-03-20T00:03:24.872Z,163849.38
2019-03-20T00:05:52.968Z,163866.63
2019-03-20T00:08:22.538Z,163822.78
2019-03-20T00:10:50.807Z,163841.42
2019-03-20T00:13:18.940Z,163806.88
2019-03-20T00:15:47.071Z,163789.56
2019-03-20T00:18:15.171Z,163745.73
2019-03-20T00:20:43.264Z,163813.48
2019-03-20T00:23:11.395Z,163768.34
2019-03-20T00:25:39.489Z,163765.66
2019-03-20T00:28:07.905Z,163776.30
2019-03-20T00:30:36.063Z,163769.62
2019-03-20T00:33:04.448Z,163780.27
2019-03-20T00:35:32.961Z,163770.98
2019-03-20T00:38:01.275Z,163774.95
2019-03-20T00:40:29.872Z,163785.59
2019-03-20T00:42:58.215Z,163777.64
2019-03-20T00:45:26.359Z,163761.69
2019-03-20T00:47:54.886Z,163788.28
2019-03-20T00:50:23.046Z,163800.20
2019-03-20T00:52:51.295Z,163809.50
2019-03-20T00:55:19.582Z,163867.97
2019-03-20T00:57:47.899Z,163861.30
2019-03-20T01:00:17.381Z,163854.69
2019-03-20T01:02:45.757Z,163865.33
2019-03-20T01:05:15.028Z,163911.81
2019-03-20T01:07:43.591Z,163913.16
2019-03-20T01:10:16.033Z,163923.75
2019-03-20T01:12:44.099Z,164043.36
2019-03-20T01:15:13.229Z,164107.19
2019-03-20T01:17:41.409Z,164128.47
2019-03-20T01:20:11.095Z,164084.59
2019-03-20T01:22:39.236Z,164152.41
2019-03-20T01:25:08.846Z,164155.05
2019-03-20T01:27:36.989Z,164163.00
2019-03-20T01:30:06.051Z,164135.09
2019-03-20T01:32:34.210Z,164151.06
2019-03-20T01:35:03.230Z,164133.75
2019-03-20T01:37:33.297Z,164172.31
2019-03-20T01:40:01.507Z,164164.34
2019-03-20T01:42:29.856Z,164152.41
2019-03-20T01:44:58.338Z,164176.34
2019-03-20T01:47:26.496Z,164164.34
2019-03-20T01:49:54.802Z,164177.64
2019-03-20T01:52:22.956Z,164201.58
2019-03-20T01:54:51.270Z,164218.89
2019-03-20T01:57:19.898Z,164220.19
2019-03-20T01:59:48.045Z,164214.91
2019-03-20T02:02:16.141Z,164281.41
2019-03-20T02:04:44.456Z,164242.83
2019-03-20T02:07:12.696Z,164285.38
2019-03-20T02:09:40.785Z,164277.42
2019-03-20T02:12:08.974Z,164298.67
2019-03-20T02:14:37.731Z,164319.98
2019-03-20T02:17:06.334Z,164317.28
2019-03-20T02:19:34.629Z,164314.66
2019-03-20T02:22:02.825Z,164300.02
2019-03-20T02:24:30.956Z,164327.94
2019-03-20T02:26:59.386Z,164334.63
2019-03-20T02:29:27.436Z,164385.14
2019-03-20T02:31:55.735Z,164373.20
2019-03-20T02:34:23.822Z,164367.87
2019-03-20T02:36:51.956Z,164369.16
2019-03-20T02:39:20.051Z,164375.84
2019-03-20T02:41:48.324Z,164377.19
2019-03-20T02:44:16.634Z,164361.20
2019-03-20T02:46:44.890Z,164370.52
2019-03-20T02:49:13.095Z,164410.44
2019-03-20T02:51:41.347Z,164417.06
2019-03-20T02:54:10.537Z,164409.09
2019-03-20T02:56:38.756Z,164361.20
2019-03-20T02:59:07.055Z,164397.16
2019-03-20T03:01:35.253Z,164418.41
2019-03-20T03:04:03.622Z,164391.81
2019-03-20T03:06:31.821Z,164405.11
2019-03-20T03:09:00.005Z,164397.16
2019-03-20T03:11:28.051Z,164389.12
2019-03-20T03:13:56.308Z,164387.84
2019-03-20T03:16:24.377Z,164391.81
2019-03-20T03:18:52.506Z,164386.50
2019-03-20T03:21:20.751Z,164413.08
2019-03-20T03:23:49.157Z,164363.89
2019-03-20T03:26:17.227Z,164386.50
2019-03-20T03:28:45.401Z,164345.22
2019-03-20T03:31:13.594Z,164369.16
2019-03-20T03:33:43.235Z,164337.25
2019-03-20T03:36:21.066Z,164327.94
2019-03-20T03:38:41.883Z,164301.36
2019-03-20T03:41:09.959Z,164261.44
2019-03-20T03:43:38.062Z,164289.36
2019-03-20T03:46:06.261Z,164319.98
2019-03-20T03:48:34.329Z,164301.36
2019-03-20T03:51:02.437Z,164293.34
2019-03-20T03:53:30.984Z,164294.69
2019-03-20T03:55:59.196Z,164272.09
2019-03-20T03:58:27.567Z,164272.09
2019-03-20T04:00:55.650Z,164264.08
2019-03-20T04:03:23.985Z,164254.78
2019-03-20T04:05:52.091Z,164236.16
2019-03-20T04:08:20.483Z,164257.47
2019-03-20T04:10:48.647Z,164250.80
2019-03-20T04:13:17.027Z,164253.48
2019-03-20T04:15:45.263Z,164200.28
2019-03-20T04:18:13.347Z,164205.59
2019-03-20T04:20:41.433Z,164165.70
2019-03-20T04:23:09.553Z,164163.00
2019-03-20T04:25:37.707Z,164155.05
2019-03-20T04:28:05.805Z,164165.70
2019-03-20T04:30:34.049Z,164131.13
2019-03-20T04:33:02.397Z,164117.83
2019-03-20T04:35:31.413Z,164105.84
2019-03-20T04:37:59.519Z,164100.52
2019-03-20T04:40:27.585Z,164133.75
2019-03-20T04:42:56.013Z,164157.69
2019-03-20T04:45:24.149Z,164152.41
2019-03-20T04:47:52.322Z,164096.53
2019-03-20T04:50:20.392Z,164019.44
2019-03-20T04:52:48.514Z,164003.52
2019-03-20T04:55:16.604Z,164038.03
2019-03-20T04:57:45.919Z,164104.55
2019-03-20T05:00:15.206Z,164088.58
2019-03-20T05:02:43.375Z,164103.20
2019-03-20T05:05:11.441Z,164119.17
2019-03-20T05:07:39.540Z,164111.16
2019-03-20T05:10:10.157Z,164128.47
2019-03-20T05:12:38.342Z,164164.34
2019-03-20T05:15:07.447Z,164144.39
2019-03-20T05:17:35.546Z,164168.33
2019-03-20T05:20:04.722Z,164133.75
2019-03-20T05:22:32.783Z,164136.44
2019-03-20T05:25:00.987Z,164115.14
2019-03-20T05:27:29.046Z,164124.45
2019-03-20T05:29:57.172Z,164112.50
2019-03-20T05:32:25.237Z,164120.47
2019-03-20T05:34:53.474Z,164140.42
2019-03-20T05:37:21.609Z,164133.75
2019-03-20T05:39:49.845Z,164124.45
2019-03-20T05:42:17.960Z,164152.41
2019-03-20T05:44:52.359Z,164155.05
2019-03-20T05:47:20.436Z,164115.14
2019-03-20T05:49:48.969Z,164147.09
2019-03-20T05:52:17.145Z,164176.34
2019-03-20T05:54:45.195Z,164155.05
2019-03-20T05:57:13.322Z,164185.66
2019-03-20T05:59:41.417Z,164194.95
2019-03-20T06:02:09.645Z,164218.89
2019-03-20T06:04:37.697Z,164221.53
2019-03-20T06:07:05.789Z,164232.19
2019-03-20T06:09:33.902Z,164264.08
2019-03-20T06:12:02.035Z,164261.44
2019-03-20T06:14:30.198Z,164277.42
2019-03-20T06:16:58.334Z,164300.02
2019-03-20T06:19:26.423Z,164321.27
2019-03-20T06:21:54.551Z,164325.31
2019-03-20T06:24:22.949Z,164343.92
2019-03-20T06:26:51.251Z,164373.20
2019-03-20T06:29:20.222Z,164386.50
2019-03-20T06:31:48.668Z,164394.45
2019-03-20T06:34:16.752Z,164415.77
2019-03-20T06:36:44.879Z,164434.39
2019-03-20T06:39:13.030Z,164445.05
2019-03-20T06:41:41.526Z,164469.00
2019-03-20T06:44:09.615Z,164511.58
2019-03-20T06:46:37.759Z,164514.22
2019-03-20T06:49:07.875Z,164520.89
2019-03-20T06:51:36.166Z,164568.81
2019-03-20T06:54:04.255Z,164602.09
2019-03-20T06:56:32.384Z,164608.72
2019-03-20T07:00:10.614Z,164615.39
2019-03-20T07:02:45.529Z,164655.34
2019-03-20T07:06:27.126Z,164634.03
2019-03-20T07:09:28.962Z,164627.39
2019-03-20T07:11:57.178Z,164748.58
2019-03-20T07:14:25.635Z,164819.22
2019-03-20T07:16:53.861Z,164884.47
2019-03-20T07:19:21.897Z,164999.05
2019-03-20T07:21:50.020Z,165007.08
2019-03-20T07:24:18.104Z,164961.75
2019-03-20T07:26:46.251Z,164945.73
2019-03-20T07:29:14.449Z,164981.75
2019-03-20T07:31:42.815Z,165016.41
2019-03-20T07:34:10.924Z,165047.03
2019-03-20T07:36:39.034Z,165093.72
2019-03-20T07:39:08.870Z,165105.69
2019-03-20T07:41:37.250Z,165137.67
2019-03-20T07:44:05.733Z,165180.33
2019-03-20T07:46:34.401Z,165140.36
2019-03-20T07:49:02.880Z,165143.00
2019-03-20T07:51:31.136Z,165169.70
2019-03-20T07:53:59.275Z,165155.03
2019-03-20T07:56:27.799Z,165153.69
2019-03-20T07:58:56.052Z,165188.36
2019-03-20T08:01:24.669Z,165187.00
2019-03-20T08:03:52.935Z,165205.67
2019-03-20T08:06:21.139Z,165237.70
2019-03-20T08:08:49.242Z,165283.02
2019-03-20T08:11:17.373Z,165339.02
2019-03-20T08:13:45.479Z,165351.09
2019-03-20T08:16:13.612Z,165424.48
2019-03-20T08:18:42.183Z,165463.17
2019-03-20T08:21:10.481Z,165472.52
2019-03-20T08:23:38.709Z,165451.14
2019-03-20T08:26:07.070Z,165451.14
2019-03-20T08:28:35.633Z,165471.17
2019-03-20T08:31:04.144Z,165492.53
2019-03-20T08:33:32.323Z,165509.88
2019-03-20T08:36:00.483Z,165567.25
2019-03-20T08:38:28.824Z,165593.97
2019-03-20T08:40:57.331Z,165531.25
2019-03-20T08:43:25.504Z,165489.84
2019-03-20T08:45:54.130Z,165512.50
2019-03-20T08:48:22.398Z,165545.92
2019-03-20T08:50:50.471Z,165585.92
2019-03-20T08:53:18.644Z,165609.95
2019-03-20T08:55:46.933Z,165601.95
2019-03-20T08:58:15.104Z,165631.33
2019-03-20T09:00:43.279Z,165593.97
2019-03-20T09:03:12.139Z,165623.28
2019-03-20T09:05:40.733Z,165670.05
2019-03-20T09:08:08.875Z,165667.34
2019-03-20T09:10:37.005Z,165633.97
2019-03-20T09:13:05.551Z,165666.05
2019-03-20T09:15:33.661Z,165663.34
2019-03-20T09:18:01.802Z,165684.73
2019-03-20T09:20:29.881Z,165650.00
2019-03-20T09:22:58.017Z,165668.69
2019-03-20T09:25:26.090Z,165666.05
2019-03-20T09:27:54.203Z,165671.34
2019-03-20T09:30:22.550Z,165748.78
2019-03-20T09:32:50.650Z,165791.50
2019-03-20T09:35:18.754Z,165822.25
2019-03-20T09:37:51.881Z,165847.69
2019-03-20T09:40:17.230Z,165816.89
2019-03-20T09:42:45.496Z,165859.69
2019-03-20T09:45:14.749Z,165812.91
2019-03-20T09:47:43.348Z,165830.23
2019-03-20T09:50:14.068Z,165823.59
2019-03-20T09:52:42.734Z,165828.94
2019-03-20T09:55:11.071Z,165875.72
2019-03-20T09:57:39.258Z,165910.47
2019-03-20T10:00:15.768Z,165955.84
2019-03-20T10:02:43.919Z,165939.84
2019-03-20T10:05:12.097Z,165922.47
2019-03-20T10:07:40.204Z,165987.95
2019-03-20T10:10:09.249Z,165935.86
2019-03-20T10:12:37.358Z,165975.91
2019-03-20T10:15:08.113Z,165962.56
2019-03-20T10:17:36.332Z,166024.00
2019-03-20T10:20:05.851Z,166065.45
2019-03-20T10:22:35.733Z,166100.16
2019-03-20T10:25:04.886Z,166085.45
2019-03-20T10:27:33.264Z,166080.16
2019-03-20T10:30:01.497Z,166093.50
2019-03-20T10:32:29.618Z,166069.45
2019-03-20T10:34:57.769Z,166085.45
2019-03-20T10:37:26.190Z,165994.59
2019-03-20T10:39:54.282Z,166040.05
2019-03-20T10:42:22.517Z,166056.09
2019-03-20T10:44:50.612Z,166034.70
2019-03-20T10:47:18.759Z,166094.86
2019-03-20T10:49:46.858Z,166126.91
2019-03-20T10:52:14.976Z,166154.97
2019-03-20T10:54:43.114Z,166129.56
2019-03-20T10:57:11.242Z,166074.81
2019-03-20T10:59:41.467Z,166090.80
2019-03-20T11:02:09.597Z,166032.05
2019-03-20T11:04:37.894Z,166082.81
2019-03-20T11:07:06.424Z,166101.50
2019-03-20T11:09:34.610Z,166120.22
2019-03-20T11:12:02.709Z,166105.50
2019-03-20T11:14:30.945Z,166048.05
2019-03-20T11:16:59.139Z,165977.25
2019-03-20T11:19:27.337Z,166006.66
2019-03-20T11:21:55.424Z,165973.25
2019-03-20T11:24:23.692Z,165991.95
2019-03-20T11:26:51.742Z,166048.05
2019-03-20T11:29:21.779Z,166016.00
2019-03-20T11:31:49.994Z,165971.91
2019-03-20T11:34:18.057Z,165949.20
2019-03-20T11:36:46.187Z,165891.77
2019-03-20T11:39:14.369Z,165889.06
2019-03-20T11:41:42.592Z,165894.42
2019-03-20T11:44:10.780Z,165879.72
2019-03-20T11:46:38.910Z,165873.06
2019-03-20T11:49:07.137Z,165915.81
2019-03-20T11:51:35.244Z,165909.11
2019-03-20T11:54:03.504Z,165893.06
2019-03-20T11:56:31.785Z,165943.86
2019-03-20T11:58:59.877Z,165949.20
2019-03-20T12:01:28.680Z,165959.91
2019-03-20T12:03:56.719Z,165978.59
2019-03-20T12:06:24.903Z,165986.59
2019-03-20T12:08:53.055Z,165997.30
2019-03-20T12:11:21.621Z,165982.59
2019-03-20T12:13:50.029Z,165954.55
2019-03-20T12:16:18.434Z,165977.25
2019-03-20T12:18:46.653Z,165970.55
2019-03-20T12:21:15.080Z,165970.55
2019-03-20T12:23:43.613Z,165965.20
2019-03-20T12:26:11.913Z,165923.81
2019-03-20T12:28:40.113Z,165935.86
2019-03-20T12:31:08.582Z,165897.13
2019-03-20T12:33:37.064Z,165918.47
2019-03-20T12:36:05.267Z,165945.20
2019-03-20T12:38:34.120Z,165903.77
2019-03-20T12:41:02.238Z,165909.11
2019-03-20T12:43:30.457Z,165901.11
2019-03-20T12:45:58.931Z,165891.77
2019-03-20T12:48:27.433Z,165879.72
2019-03-20T12:50:55.544Z,165917.11
2019-03-20T12:53:27.907Z,165925.16
2019-03-20T12:55:56.470Z,165938.50
2019-03-20T12:58:24.573Z,165933.16
2019-03-20T13:00:54.488Z,165903.77
2019-03-20T13:03:22.779Z,165954.55
2019-03-20T13:05:50.949Z,165938.50
2019-03-20T13:08:19.155Z,165945.20
2019-03-20T13:10:47.282Z,165955.84
2019-03-20T13:13:15.478Z,165957.20
2019-03-20T13:15:43.672Z,165935.86
2019-03-20T13:18:11.816Z,165915.81
2019-03-20T13:20:40.503Z,165965.20
2019-03-20T13:23:11.318Z,165973.25
2019-03-20T13:25:39.555Z,166005.30
2019-03-20T13:28:07.749Z,165995.94
2019-03-20T13:30:43.266Z,166010.66
2019-03-20T13:33:11.436Z,166026.70
2019-03-20T13:35:39.511Z,166008.00
2019-03-20T13:38:07.585Z,166032.05
2019-03-20T13:40:35.778Z,166008.00
2019-03-20T13:43:04.016Z,166037.34
2019-03-20T13:45:32.206Z,166036.05
2019-03-20T13:48:00.303Z,166037.34
2019-03-20T13:50:28.535Z,166003.95
2019-03-20T13:52:56.706Z,166008.00
2019-03-20T13:55:25.010Z,166018.64
2019-03-20T13:57:53.179Z,166028.00
2019-03-20T14:00:21.637Z,166053.41
2019-03-20T14:02:49.744Z,166042.70
2019-03-20T14:05:17.955Z,166069.45
2019-03-20T14:07:46.166Z,166050.75
2019-03-20T14:10:24.612Z,166032.05
2019-03-20T14:12:47.213Z,166029.34
2019-03-20T14:15:15.769Z,166034.70
2019-03-20T14:17:43.989Z,166013.30
2019-03-20T14:20:15.212Z,166016.00
2019-03-20T14:22:43.519Z,166017.34
2019-03-20T14:25:11.772Z,166026.70
2019-03-20T14:27:39.869Z,166022.66
2019-03-20T14:30:15.983Z,166025.34
2019-03-20T14:32:44.319Z,166016.00
2019-03-20T14:35:12.441Z,166008.00
2019-03-20T14:37:40.503Z,166033.34
2019-03-20T14:40:09.705Z,166037.34
2019-03-20T14:42:37.767Z,166033.34
2019-03-20T14:45:12.478Z,166033.34
2019-03-20T14:47:42.315Z,166026.70
2019-03-20T14:50:14.403Z,166016.00
2019-03-20T14:52:42.598Z,166016.00
2019-03-20T14:55:10.944Z,166032.05
2019-03-20T14:57:39.540Z,166050.75
2019-03-20T15:00:20.479Z,166010.66
2019-03-20T15:02:48.615Z,166030.69
2019-03-20T15:05:16.832Z,166034.70
2019-03-20T15:07:44.962Z,166016.00
2019-03-20T15:10:15.834Z,165991.95
2019-03-20T15:12:43.939Z,166026.70
2019-03-20T15:15:17.715Z,165990.59
2019-03-20T15:17:45.841Z,165998.59
2019-03-20T15:20:14.306Z,166032.05
2019-03-20T15:22:42.444Z,166026.70
2019-03-20T15:25:10.591Z,165989.25
2019-03-20T15:27:38.655Z,166009.30
2019-03-20T15:30:10.809Z,166012.00
2019-03-20T15:32:38.864Z,166016.00
2019-03-20T15:35:08.058Z,165998.59
2019-03-20T15:37:36.147Z,165954.55
2019-03-20T15:40:05.870Z,166005.30
2019-03-20T15:42:34.122Z,166016.00
2019-03-20T15:45:02.271Z,166010.66
2019-03-20T15:47:30.408Z,166002.66
2019-03-20T15:49:58.837Z,166038.70
2019-03-20T15:52:26.932Z,166029.34
2019-03-20T15:54:55.107Z,166003.95
2019-03-20T15:57:23.297Z,166008.00
2019-03-20T15:59:52.130Z,165993.30
2019-03-20T16:02:20.408Z,166028.00
2019-03-20T16:04:48.514Z,166042.70
2019-03-20T16:07:16.671Z,166034.70
2019-03-20T16:09:44.773Z,165997.30
2019-03-20T16:12:13.004Z,166013.30
2019-03-20T16:14:42.177Z,166016.00
2019-03-20T16:17:10.318Z,166001.30
2019-03-20T16:19:38.485Z,166005.30
2019-03-20T16:22:06.557Z,165974.55
2019-03-20T16:24:34.632Z,165971.91
2019-03-20T16:27:03.043Z,165993.30
2019-03-20T16:29:31.131Z,165963.91
2019-03-20T16:31:59.368Z,165979.91
2019-03-20T16:34:27.475Z,165974.55
2019-03-20T16:36:55.557Z,165973.25
2019-03-20T16:39:23.662Z,165966.55
2019-03-20T16:41:51.757Z,165951.84
2019-03-20T16:44:19.953Z,165938.50
2019-03-20T16:46:48.336Z,165955.84
2019-03-20T16:49:16.492Z,165938.50
2019-03-20T16:51:44.690Z,165945.20
2019-03-20T16:54:12.795Z,165954.55
2019-03-20T16:56:40.954Z,165969.25
2019-03-20T16:59:09.089Z,165934.50
2019-03-20T17:01:37.164Z,165933.16
2019-03-20T17:04:05.287Z,165951.84
2019-03-20T17:06:33.389Z,165954.55
2019-03-20T17:09:01.544Z,165922.47
2019-03-20T17:11:38.141Z,165914.45
2019-03-20T17:14:00.362Z,165945.20
2019-03-20T17:16:28.514Z,165913.11
2019-03-20T17:18:56.581Z,165909.11
2019-03-20T17:21:24.750Z,165942.50
2019-03-20T17:23:53.166Z,165887.77
2019-03-20T17:26:21.381Z,165917.11
2019-03-20T17:28:49.447Z,165903.77
2019-03-20T17:31:17.677Z,165930.52
2019-03-20T17:33:45.928Z,165918.47
2019-03-20T17:36:14.042Z,165927.81
2019-03-20T17:38:42.451Z,165934.50
2019-03-20T17:41:10.596Z,165919.81
2019-03-20T17:43:38.662Z,165927.81
2019-03-20T17:46:06.858Z,165945.20
2019-03-20T17:48:35.238Z,165923.81
2019-03-20T17:51:03.428Z,165911.81
2019-03-20T17:53:32.597Z,165909.11
2019-03-20T17:56:00.924Z,165911.81
2019-03-20T17:58:29.186Z,165886.42
2019-03-20T18:00:57.370Z,165887.77
2019-03-20T18:03:25.499Z,165901.11
2019-03-20T18:05:53.929Z,165910.47
2019-03-20T18:08:21.975Z,165895.77
2019-03-20T18:10:50.104Z,165889.06
2019-03-20T18:13:18.199Z,165889.06
2019-03-20T18:15:46.309Z,165878.38
2019-03-20T18:18:14.398Z,165894.42
2019-03-20T18:20:43.112Z,165885.06
2019-03-20T18:23:11.237Z,165901.11
2019-03-20T18:25:39.348Z,165879.72
2019-03-20T18:28:07.662Z,165898.41
2019-03-20T18:30:36.490Z,165898.41
2019-03-20T18:33:04.785Z,165895.77
2019-03-20T18:35:32.963Z,165857.03
2019-03-20T18:38:01.597Z,165871.72
2019-03-20T18:40:29.682Z,165874.38
2019-03-20T18:42:57.827Z,165846.34
2019-03-20T18:45:26.325Z,165858.37
2019-03-20T18:47:54.698Z,165867.72
2019-03-20T18:50:24.073Z,165838.34
2019-03-20T18:52:52.387Z,165827.59
2019-03-20T18:55:20.613Z,165818.25
2019-03-20T18:57:48.951Z,165834.34
2019-03-20T19:00:20.224Z,165814.25
2019-03-20T19:02:48.608Z,165820.89
2019-03-20T19:05:48.123Z,165799.56
2019-03-20T19:08:16.467Z,165780.87
2019-03-20T19:10:44.809Z,165786.22
2019-03-20T19:13:13.424Z,165752.83
2019-03-20T19:15:41.536Z,165775.52
2019-03-20T19:18:09.646Z,165763.47
2019-03-20T19:20:37.985Z,165766.17
2019-03-20T19:23:06.149Z,165760.83
2019-03-20T19:25:34.238Z,165751.48
2019-03-20T19:28:02.367Z,165756.83
2019-03-20T19:30:30.454Z,165748.78
2019-03-20T19:32:58.517Z,165740.78
2019-03-20T19:35:26.743Z,165740.78
2019-03-20T19:37:54.812Z,165742.14
2019-03-20T19:40:22.876Z,165746.14
2019-03-20T19:42:51.057Z,165731.44
2019-03-20T19:45:19.293Z,165742.14
2019-03-20T19:47:47.422Z,165703.41
2019-03-20T19:50:15.583Z,165703.41
2019-03-20T19:52:44.136Z,165723.45
2019-03-20T19:55:12.362Z,165712.75
2019-03-20T19:57:40.720Z,165700.72
2019-03-20T20:00:12.602Z,165718.11
2019-03-20T20:02:40.799Z,165724.75
2019-03-20T20:05:15.618Z,165699.42
2019-03-20T20:07:40.375Z,165742.14
2019-03-20T20:10:09.070Z,165711.41
2019-03-20T20:12:37.251Z,165732.80
2019-03-20T20:15:16.757Z,165719.41
2019-03-20T20:17:46.888Z,165686.03
2019-03-20T20:20:17.038Z,165727.45
2019-03-20T20:22:45.205Z,165731.44
2019-03-20T20:25:13.329Z,165710.06
2019-03-20T20:27:41.420Z,165731.44
2019-03-20T20:30:13.008Z,165730.09
2019-03-20T20:32:41.156Z,165740.78
2019-03-20T20:35:09.484Z,165700.72
2019-03-20T20:37:37.600Z,165739.44
2019-03-20T20:40:07.121Z,165714.11
2019-03-20T20:42:42.927Z,165734.09
2019-03-20T20:45:13.543Z,165743.44
2019-03-20T20:47:41.871Z,165712.75
2019-03-20T20:50:10.538Z,165735.44
2019-03-20T20:52:38.767Z,165724.75
2019-03-20T20:55:08.529Z,165711.41
2019-03-20T20:57:37.399Z,165730.09
2019-03-20T21:00:11.048Z,165710.06
2019-03-20T21:02:39.508Z,165706.06
2019-03-20T21:05:07.805Z,165700.72
2019-03-20T21:07:36.232Z,165702.06
2019-03-20T21:10:05.145Z,165724.75
2019-03-20T21:12:33.330Z,165738.14
2019-03-20T21:15:01.429Z,165724.75
2019-03-20T21:17:55.296Z,165712.75
2019-03-20T21:20:24.218Z,165708.77
2019-03-20T21:24:02.813Z,165708.77
2019-03-20T21:26:32.907Z,165732.80
2019-03-20T21:29:54.298Z,165743.44
2019-03-20T21:32:36.745Z,165736.80
2019-03-20T21:36:12.798Z,165712.75
2019-03-20T21:38:41.905Z,165692.72
2019-03-20T21:42:12.201Z,165723.45
2019-03-20T21:45:39.429Z,165708.77
2019-03-20T21:48:09.374Z,165712.75
2019-03-20T21:51:15.699Z,165719.41
2019-03-20T21:54:54.479Z,165703.41
2019-03-20T21:58:09.512Z,165738.14
2019-03-20T22:01:33.743Z,165707.41
2019-03-20T22:04:02.667Z,165711.41
2019-03-20T22:07:22.027Z,165746.14
2019-03-20T22:10:51.792Z,165732.80
2019-03-20T22:13:41.616Z,165714.11
2019-03-20T22:17:09.534Z,165723.45
2019-03-20T22:20:34.985Z,165732.80
2019-03-20T22:24:08.204Z,165754.13
2019-03-20T22:27:24.887Z,165748.78
2019-03-20T22:29:54.032Z,165740.78
2019-03-20T22:33:22.030Z,165754.13
2019-03-20T22:36:18.466Z,165744.78
2019-03-20T22:40:05.041Z,165746.14
2019-03-20T22:42:49.926Z,165746.14
2019-03-20T22:46:26.419Z,165724.75
2019-03-20T22:49:51.643Z,165731.44
2019-03-20T22:53:02.832Z,165735.44
2019-03-20T22:56:38.996Z,165724.75
2019-03-20T22:59:07.914Z,165722.09
2019-03-20T23:02:32.612Z,165767.47
2019-03-20T23:05:01.524Z,165748.78
2019-03-20T23:07:30.840Z,165755.48
2019-03-20T23:09:59.941Z,165755.48
2019-03-20T23:12:28.973Z,165762.17
2019-03-20T23:14:58.211Z,165772.81
2019-03-20T23:17:27.988Z,165783.52
2019-03-20T23:19:59.020Z,165766.17
2019-03-20T23:22:29.103Z,165812.91
2019-03-20T23:24:58.039Z,165780.87
2019-03-20T23:27:30.089Z,165791.50
2019-03-20T23:29:59.790Z,165763.47
2019-03-20T23:32:29.304Z,165804.91
2019-03-20T23:34:58.236Z,165804.91
2019-03-20T23:37:27.128Z,165794.20
2019-03-20T23:39:56.059Z,165819.59
2019-03-20T23:42:25.833Z,165772.81
2019-03-20T23:44:54.860Z,165783.52
2019-03-20T23:48:19.884Z,165796.84
2019-03-20T23:50:52.427Z,165762.17
2019-03-20T23:53:21.355Z,165780.87
2019-03-20T23:55:50.263Z,165786.22
2019-03-20T23:58:19.227Z,165771.53
